Latest Weather Observations for Point Fawcett

IDD60801

Issued at 6:01 am CST Saturday 24 June 2017 (issued every 30 minutes, with the page automatically refreshed every 10 minutes)

About weather observations | Map of weather stations | Latest weather observations for NT | Other Formats
Station Details ID: 200731 Name: POINT FAWCETT Lat: -11.76 Lon: 130.03 Height: 6.5 m
Data from the previous 72 hours. | See also: Recent months at Point Fawcett
Date/Time
CST
Temp
°C
App
Temp
°C
Dew
Point
°C
Rel
Hum
%
Delta-T
°C
Wind Press
QNH
hPa
Press
MSL
hPa
Rain since
9am
mm
Dir  Spd
km/h
Gust
km/h
Spd
kts
Gust
kts
24/06:00am 21.5 - - - - ESE 9 13 5 7 1011.5 1011.5 0.0
24/05:30am 21.7 - - - - E 11 13 6 7 1011.5 - 0.0
24/05:00am 21.8 - - - - E 9 13 5 7 1011.5 - 0.0
24/04:30am 21.9 - - - - E 9 13 5 7 1011.5 - 0.0
24/04:00am 22.0 - - - - E 9 13 5 7 1011.6 - 0.0
24/03:30am 21.8 - - - - E 9 13 5 7 1011.5 - 0.0
24/03:00am 20.7 - - - - ESE 9 11 5 6 1011.8 1011.8 0.0
24/02:30am 20.4 - - - - ESE 7 9 4 5 1011.9 - 0.0
24/02:00am 20.5 - - - - ESE 7 9 4 5 1012.1 - 0.0
24/01:30am 20.9 - - - - E 7 9 4 5 1012.3 - 0.0
24/01:00am 20.8 - - - - ESE 7 9 4 5 1012.4 - 0.0
24/12:30am 21.2 - - - - E 6 7 3 4 1012.5 - 0.0
24/12:00am 21.9 - - - - E 6 7 3 4 1012.5 1012.5 0.0
 
Date/Time
CST
Temp
°C
App
Temp
°C
Dew
Point
°C
Rel
Hum
%
Delta-T
°C
Wind Press
QNH
hPa
Press
MSL
hPa
Rain since
9am
mm
Dir  Spd
km/h
Gust
km/h
Spd
kts
Gust
kts
23/11:30pm 22.9 - - - - ENE 6 7 3 4 1012.7 - 0.0
23/11:00pm 24.6 - - - - NE 7 11 4 6 1012.8 - 0.0
23/10:30pm 25.1 - - - - NE 9 13 5 7 1012.8 - 0.0
23/10:00pm 25.6 - - - - NNE 11 15 6 8 1012.7 - 0.0
23/09:30pm 26.0 - - - - NNE 13 20 7 11 1012.6 - 0.0
23/09:00pm 26.1 - - - - N 13 19 7 10 1012.3 1012.3 0.0
23/08:30pm 26.1 - - - - N 13 19 7 10 1012.1 - 0.0
23/08:00pm 26.2 - - - - N 15 19 8 10 1011.9 - 0.0
23/07:30pm 26.3 - - - - N 13 19 7 10 1011.6 - 0.0
23/07:00pm 26.4 - - - - N 17 22 9 12 1011.3 - 0.0
23/06:30pm 27.0 - - - - NNW 15 20 8 11 1010.9 - 0.0
23/06:00pm 28.1 - - - - N 13 17 7 9 1010.7 1010.7 0.0
23/05:30pm 29.2 - - - - SE 7 13 4 7 1010.4 - 0.0
23/05:00pm 30.0 - - - - ESE 9 17 5 9 1010.3 - 0.0
23/04:30pm 30.4 - - - - SE 9 15 5 8 1010.3 - 0.0
23/04:00pm 30.9 - - - - SE 9 15 5 8 1010.3 - 0.0
23/03:30pm 31.6 - - - - ESE 11 17 6 9 1010.5 - 0.0
23/03:00pm 31.1 - - - - ESE 13 20 7 11 1010.9 1010.9 0.0
23/02:30pm 31.3 - - - - SE 9 17 5 9 1011.2 - 0.0
23/02:00pm 30.8 - - - - E 17 22 9 12 1011.8 - 0.0
23/01:30pm 31.4 - - - - E 17 24 9 13 1012.1 - 0.0
23/01:00pm 30.5 - - - - E 17 30 9 16 1012.5 - 0.0
23/12:30pm 30.1 - - - - ESE 13 24 7 13 1013.2 - 0.0
23/12:00pm 29.4 - - - - ESE 13 24 7 13 1013.8 1013.8 0.0
23/11:30am 29.0 - - - - SE 15 22 8 12 1013.9 - 0.0
23/11:00am 28.7 - - - - ESE 13 20 7 11 1014.3 - 0.0
23/10:30am 28.7 - - - - ESE 11 20 6 11 1014.4 - 0.0
23/10:00am 28.0 - - - - E 13 19 7 10 1014.6 - 0.0
23/09:30am 27.7 - - - - ESE 9 13 5 7 1014.6 - 0.0
23/09:00am 25.7 - - - - ESE 7 9 4 5 1014.5 1014.5 0.0
23/08:30am 23.7 - - - - E 7 11 4 6 1014.1 - 0.0
23/08:00am 20.4 - - - - ESE 7 9 4 5 1013.8 - 0.0
23/07:30am 19.0 - - - - ESE 7 9 4 5 1013.5 - 0.0
23/07:00am 18.9 - - - - ESE 9 11 5 6 1013.3 - 0.0
23/06:30am 18.6 - - - - ESE 7 9 4 5 1013.1 - 0.0
23/06:00am 18.8 - - - - ESE 7 9 4 5 1012.9 1012.9 0.0
23/05:30am 18.7 - - - - ESE 7 9 4 5 1012.9 - 0.0
23/05:00am 18.8 - - - - ESE 7 9 4 5 1013.0 - 0.0
23/04:30am 18.9 - - - - ESE 7 9 4 5 1013.0 - 0.0
23/04:00am 19.1 - - - - ESE 7 9 4 5 1013.0 - 0.0
23/03:30am 18.6 - - - - ESE 7 9 4 5 1013.1 - 0.0
23/03:00am 18.4 - - - - SE 7 7 4 4 1013.3 1013.3 0.0
23/02:30am 18.2 - - - - SE 6 7 3 4 1013.3 - 0.0
23/02:00am 18.4 - - - - SE 7 7 4 4 1013.4 - 0.0
23/01:30am 18.5 - - - - S 6 7 3 4 1013.7 - 0.0
23/01:00am 18.6 - - - - CALM 0 0 0 0 1014.1 - 0.0
23/12:30am 18.6 - - - - CALM 0 0 0 0 1014.1 - 0.0
23/12:00am 18.6 - - - - CALM 0 0 0 0 1014.3 1014.3 0.0
 
Date/Time
CST
Temp
°C
App
Temp
°C
Dew
Point
°C
Rel
Hum
%
Delta-T
°C
Wind Press
QNH
hPa
Press
MSL
hPa
Rain since
9am
mm
Dir  Spd
km/h
Gust
km/h
Spd
kts
Gust
kts
22/11:30pm 18.8 - - - - CALM 0 0 0 0 1014.3 - 0.0
22/11:00pm 19.2 - - - - CALM 0 0 0 0 1014.2 - 0.0
22/10:30pm 19.6 - - - - CALM 0 4 0 2 1014.4 - 0.0
22/10:00pm 19.7 - - - - E 6 7 3 4 1014.5 - 0.0
22/09:30pm 20.1 - - - - ESE 7 7 4 4 1014.4 - 0.0
22/09:00pm 20.4 - - - - ESE 7 9 4 5 1014.3 1014.3 0.0
22/08:30pm 21.0 - - - - ESE 7 9 4 5 1014.0 - 0.0
22/08:00pm 21.5 - - - - ESE 7 9 4 5 1013.7 - 0.0
22/07:30pm 22.9 - - - - ESE 9 11 5 6 1013.4 - 0.0
22/07:00pm 23.6 - - - - E 7 11 4 6 1013.0 - 0.0
22/06:30pm 25.3 - - - - ENE 9 13 5 7 1012.8 - 0.0
22/06:00pm 26.2 - - - - ESE 11 15 6 8 1012.0 1012.0 0.0
22/05:30pm 27.3 - - - - SE 11 19 6 10 1011.7 - 0.0
22/05:00pm 28.5 - - - - SE 9 17 5 9 1011.5 - 0.0
22/04:30pm 29.9 - - - - ESE 9 17 5 9 1011.3 - 0.0
22/04:00pm 29.8 - - - - SE 13 20 7 11 1011.3 - 0.0
22/03:30pm 30.4 - - - - SE 13 19 7 10 1011.5 - 0.0
22/03:00pm 30.7 - - - - ESE 13 20 7 11 1011.8 1011.8 0.0
22/02:30pm 31.3 - - - - SE 11 22 6 12 1012.0 - 0.0
22/02:00pm 31.1 - - - - ESE 15 20 8 11 1012.3 - 0.0
22/01:30pm 30.9 - - - - ESE 15 24 8 13 1012.4 - 0.0
22/01:00pm 31.3 - - - - E 13 20 7 11 1012.9 - 0.0
22/12:30pm 30.7 - - - - ESE 17 24 9 13 1013.2 - 0.0
22/12:00pm 29.9 - - - - ESE 20 30 11 16 1013.7 1013.7 0.0
22/11:30am 30.1 - - - - ESE 17 35 9 19 1014.0 - 0.0
22/11:00am 29.8 - - - - E 15 24 8 13 1014.3 - 0.0
22/10:30am 29.5 - - - - E 11 24 6 13 1014.6 - 0.0
22/10:00am 28.1 - - - - E 13 24 7 13 1014.8 - 0.0
22/09:30am 27.4 - - - - E 11 17 6 9 1014.7 - 0.0
22/09:00am 25.6 - - - - E 11 19 6 10 1014.6 1014.6 0.0
22/08:30am 23.7 - - - - E 11 17 6 9 1014.5 - 0.0
22/08:00am 21.7 - - - - E 7 9 4 5 1014.1 - 0.0
22/07:30am 21.1 - - - - E 9 13 5 7 1013.9 - 0.0
22/07:00am 21.4 - - - - E 11 15 6 8 1013.7 - 0.0
22/06:30am 21.2 - - - - E 11 15 6 8 1013.4 - 0.0
22/06:00am 19.9 - - - - E 9 11 5 6 1013.1 1013.1 0.0
22/05:30am 19.9 - - - - E 9 11 5 6 1013.0 - 0.0
22/05:00am 19.2 - - - - ESE 9 11 5 6 1012.9 - 0.0
22/04:30am 19.2 - - - - ESE 9 11 5 6 1012.9 - 0.0
22/04:00am 18.5 - - - - ESE 9 11 5 6 1013.1 - 0.0
22/03:30am 19.1 - - - - SE 7 9 4 5 1013.1 - 0.0
22/03:00am 19.1 - - - - ESE 9 11 5 6 1013.5 1013.5 0.0
22/02:30am 19.0 - - - - SE 7 9 4 5 1013.6 - 0.0
22/02:00am 18.7 - - - - SE 7 7 4 4 1013.6 - 0.0
22/01:30am 18.7 - - - - SE 7 7 4 4 1013.8 - 0.0
22/01:00am 18.9 - - - - SSE 7 7 4 4 1013.9 - 0.0
22/12:30am 18.9 - - - - SSE 7 9 4 5 1014.1 - 0.0
22/12:00am 19.3 - - - - SSE 6 7 3 4 1014.3 1014.3 0.0
 
Date/Time
CST
Temp
°C
App
Temp
°C
Dew
Point
°C
Rel
Hum
%
Delta-T
°C
Wind Press
QNH
hPa
Press
MSL
hPa
Rain since
9am
mm
Dir  Spd
km/h
Gust
km/h
Spd
kts
Gust
kts
21/11:30pm 19.4 - - - - SSE 7 7 4 4 1014.4 - 0.0
21/11:00pm 19.4 - - - - SSE 7 9 4 5 1014.4 - 0.0
21/10:30pm 19.9 - - - - SSE 9 11 5 6 1014.3 - 0.0
21/10:00pm 21.0 - - - - SSE 9 17 5 9 1014.1 - 0.0
21/09:30pm 21.2 - - - - E 11 13 6 7 1013.7 - 0.0
21/09:00pm 20.7 - - - - E 9 13 5 7 1013.5 1013.5 0.0
21/08:30pm 21.0 - - - - E 9 11 5 6 1013.2 - 0.0
21/08:00pm 21.2 - - - - ESE 9 11 5 6 1013.0 - 0.0
21/07:30pm 22.2 - - - - ESE 9 11 5 6 1012.6 - 0.0
21/07:00pm 23.0 - - - - SE 9 11 5 6 1012.4 - 0.0
21/06:30pm 24.8 - - - - ESE 9 11 5 6 1012.1 - 0.0
21/06:00pm 26.5 - - - - ESE 7 11 4 6 1011.7 1011.7 0.0
21/05:30pm 28.1 - - - - SE 9 13 5 7 1011.2 - 0.0
21/05:00pm 29.3 - - - - SE 7 13 4 7 1011.1 - 0.0
21/04:30pm 29.7 - - - - ESE 11 19 6 10 1011.0 - 0.0
21/04:00pm 30.5 - - - - ESE 11 22 6 12 1010.9 - 0.0
21/03:30pm 30.7 - - - - ESE 15 26 8 14 1010.9 - 0.0
21/03:00pm 31.6 - - - - ESE 15 32 8 17 1011.0 1011.0 0.0
21/02:30pm 31.1 - - - - SE 15 28 8 15 1011.4 - 0.0
21/02:00pm 31.7 - - - - ESE 13 22 7 12 1011.7 - 0.0
21/01:30pm 31.5 - - - - ESE 17 32 9 17 1012.0 - 0.0
21/01:00pm 31.3 - - - - ESE 17 30 9 16 1012.4 - 0.0
21/12:30pm 31.4 - - - - ESE 19 30 10 16 1012.7 - 0.0
21/12:00pm 31.1 - - - - E 17 26 9 14 1013.1 1013.1 0.0
21/11:30am 31.4 - - - - E 13 28 7 15 1013.4 - 0.0
21/11:00am 30.6 - - - - ESE 15 26 8 14 1013.7 - 0.0
21/10:30am 29.9 - - - - ESE 15 26 8 14 1014.0 - 0.0
21/10:00am 29.4 - - - - E 9 20 5 11 1014.1 - 0.0
21/09:30am 27.7 - - - - ESE 11 20 6 11 1014.2 - 0.0
21/09:00am 24.7 - - - - SE 6 7 3 4 1014.2 1014.2 0.0
21/08:30am 22.4 - - - - SSE 4 7 2 4 1013.9 - 0.0
21/08:00am 21.0 - - - - SSE 6 7 3 4 1013.6 - 0.0
21/07:30am 20.8 - - - - SSE 7 7 4 4 1013.3 - 0.0
21/07:00am 21.1 - - - - SE 7 7 4 4 1013.1 - 0.0
21/06:30am 20.9 - - - - SE 7 7 4 4 1012.8 - 0.0

Other Formats:

Comma delimited format used in spreadsheet applications
http://www.bom.gov.au/fwo/IDD60801/IDD60801.94122.axf

JavaScript Object Notation format (JSON) in row-major order
http://www.bom.gov.au/fwo/IDD60801/IDD60801.94122.json